createdAt,value
2018-04-22T00:00:22.288Z,0.60
2018-04-22T00:02:49.852Z,0.50
2018-04-22T00:05:17.513Z,0.50
2018-04-22T00:07:45.060Z,0.50
2018-04-22T00:10:12.615Z,0.40
2018-04-22T00:12:40.193Z,0.50
2018-04-22T00:15:07.740Z,0.30
2018-04-22T00:17:35.289Z,0.30
2018-04-22T00:20:02.840Z,0.30
2018-04-22T00:22:30.389Z,0.50
2018-04-22T00:24:57.970Z,0.30
2018-04-22T00:27:25.517Z,0.50
2018-04-22T00:29:53.064Z,0.30
2018-04-22T00:32:20.616Z,0.30
2018-04-22T00:34:48.164Z,0.40
2018-04-22T00:37:16.550Z,0.30
2018-04-22T00:39:44.096Z,0.33
2018-04-22T00:42:11.644Z,0.40
2018-04-22T00:44:39.196Z,0.30
2018-04-22T00:47:07.512Z,0.30
2018-04-22T00:49:35.088Z,0.10
2018-04-22T00:52:02.647Z,0.23
2018-04-22T00:54:30.198Z,0.50
2018-04-22T00:56:57.740Z,0.30
2018-04-22T00:59:25.288Z,0.37
2018-04-22T01:01:52.864Z,0.30
2018-04-22T01:04:20.416Z,0.30
2018-04-22T01:06:47.964Z,0.20
2018-04-22T01:09:15.508Z,0.30
2018-04-22T01:11:43.053Z,0.20
2018-04-22T01:14:11.388Z,0.20
2018-04-22T01:16:38.944Z,0.20
2018-04-22T01:19:06.516Z,0.30
2018-04-22T01:21:34.068Z,0.20
2018-04-22T01:24:01.618Z,0.40
2018-04-22T01:26:29.188Z,0.20
2018-04-22T01:28:56.789Z,0.33
2018-04-22T01:31:25.129Z,0.20
2018-04-22T01:33:52.696Z,0.20
2018-04-22T01:36:20.256Z,0.20
2018-04-22T01:38:47.805Z,0.20
2018-04-22T01:41:15.352Z,0.27
2018-04-22T01:43:42.940Z,0.30
2018-04-22T01:46:10.484Z,0.30
2018-04-22T01:48:38.044Z,0.10
2018-04-22T01:51:05.606Z,0.20
2018-04-22T01:53:33.179Z,0.20
2018-04-22T01:56:01.520Z,0.30
2018-04-22T01:58:29.074Z,0.30
2018-04-22T02:00:56.621Z,0.30
2018-04-22T02:03:24.179Z,0.20
2018-04-22T02:05:51.730Z,0.30
2018-04-22T02:08:19.305Z,0.30
2018-04-22T02:10:46.848Z,0.30
2018-04-22T02:13:14.395Z,0.30
2018-04-22T02:15:41.969Z,0.37
2018-04-22T02:18:09.524Z,0.30
2018-04-22T02:20:37.101Z,0.27
2018-04-22T02:23:04.652Z,0.43
2018-04-22T02:25:32.201Z,0.27
2018-04-22T02:27:59.756Z,0.20
2018-04-22T02:30:27.303Z,0.37
2018-04-22T02:32:54.868Z,0.20
2018-04-22T02:35:22.596Z,0.30
2018-04-22T02:37:50.145Z,0.30
2018-04-22T02:40:18.668Z,0.30
2018-04-22T02:42:46.216Z,0.20
2018-04-22T02:45:13.808Z,0.27
2018-04-22T02:47:41.356Z,0.20
2018-04-22T02:50:08.904Z,0.37
2018-04-22T02:52:36.455Z,0.20
2018-04-22T02:55:04.000Z,0.30
2018-04-22T02:57:31.570Z,0.30
2018-04-22T02:59:59.317Z,0.40
2018-04-22T03:02:26.940Z,0.30
2018-04-22T03:04:54.489Z,0.30
2018-04-22T03:07:22.032Z,0.27
2018-04-22T03:09:49.596Z,0.23
2018-04-22T03:12:17.328Z,0.30
2018-04-22T03:14:44.880Z,0.30
2018-04-22T03:17:12.428Z,0.23
2018-04-22T03:19:39.976Z,0.17
2018-04-22T03:22:07.558Z,0.47
2018-04-22T03:24:35.115Z,0.30
2018-04-22T03:27:02.661Z,0.43
2018-04-22T03:29:30.214Z,0.10
2018-04-22T03:31:57.760Z,0.30
2018-04-22T03:34:25.326Z,0.40
2018-04-22T03:36:52.872Z,0.30
2018-04-22T03:39:21.196Z,0.30
2018-04-22T03:41:48.744Z,0.30
2018-04-22T03:44:16.287Z,0.30
2018-04-22T03:46:43.857Z,0.30
2018-04-22T03:49:11.409Z,0.20
2018-04-22T03:51:38.956Z,0.23
2018-04-22T03:54:06.504Z,0.30
2018-04-22T03:56:34.056Z,0.30
2018-04-22T03:59:01.631Z,0.30
2018-04-22T04:01:29.188Z,0.20
2018-04-22T04:03:56.735Z,0.27
2018-04-22T04:06:24.312Z,0.23
2018-04-22T04:08:51.868Z,0.30
2018-04-22T04:11:19.412Z,0.40
2018-04-22T04:13:46.989Z,0.30
2018-04-22T04:16:14.532Z,0.53
2018-04-22T04:19:02.697Z,0.40
2018-04-22T04:21:41.976Z,0.30
2018-04-22T04:27:45.032Z,0.40
2018-04-22T04:30:12.588Z,0.33
2018-04-22T04:32:40.141Z,0.30
2018-04-22T04:35:07.720Z,0.20
2018-04-22T04:37:35.291Z,0.30
2018-04-22T04:40:02.844Z,0.23
2018-04-22T04:42:30.392Z,0.30
2018-04-22T04:44:57.935Z,0.30
2018-04-22T04:47:25.515Z,0.40
2018-04-22T04:49:53.068Z,0.23
2018-04-22T04:52:20.620Z,0.30
2018-04-22T04:54:48.187Z,0.20
2018-04-22T04:57:15.782Z,0.30
2018-04-22T04:59:44.131Z,0.20
2018-04-22T05:02:11.676Z,0.20
2018-04-22T05:04:39.224Z,0.30
2018-04-22T05:07:07.776Z,0.20
2018-04-22T05:09:35.329Z,0.10
2018-04-22T05:12:02.904Z,0.40
2018-04-22T05:14:30.447Z,0.30
2018-04-22T05:16:58.013Z,0.37
2018-04-22T05:19:25.596Z,0.10
2018-04-22T05:21:53.160Z,0.30
2018-04-22T05:24:20.738Z,0.27
2018-04-22T05:26:48.294Z,0.40
2018-04-22T05:29:15.843Z,0.40
2018-04-22T05:31:43.397Z,0.30
2018-04-22T05:34:10.956Z,0.23
2018-04-22T05:36:38.536Z,0.30
2018-04-22T05:39:06.087Z,0.20
2018-04-22T05:41:33.644Z,0.10
2018-04-22T05:44:01.195Z,0.20
2018-04-22T05:46:28.756Z,0.40
2018-04-22T05:48:56.336Z,0.20
2018-04-22T05:51:24.660Z,0.20
2018-04-22T05:53:52.213Z,0.20
2018-04-22T05:56:19.772Z,0.30
2018-04-22T05:58:47.332Z,0.20
2018-04-22T06:01:14.904Z,0.27
2018-04-22T06:03:42.459Z,0.17
2018-04-22T06:06:10.665Z,0.30
2018-04-22T06:08:38.265Z,0.20
2018-04-22T06:11:05.787Z,0.30
2018-04-22T06:13:33.364Z,0.30
2018-04-22T06:16:01.676Z,0.27
2018-04-22T06:18:29.229Z,0.30
2018-04-22T06:20:56.796Z,0.27
2018-04-22T06:23:24.356Z,0.20
2018-04-22T06:25:51.944Z,0.20
2018-04-22T06:28:19.530Z,0.30
2018-04-22T06:30:47.096Z,0.30
2018-04-22T06:33:14.657Z,0.50
2018-04-22T06:35:42.218Z,0.20
2018-04-22T06:38:09.813Z,0.20
2018-04-22T06:40:37.368Z,0.20
2018-04-22T06:43:04.921Z,0.20
2018-04-22T06:45:32.472Z,0.30
2018-04-22T06:48:00.032Z,0.20
2018-04-22T06:50:27.604Z,0.40
2018-04-22T06:52:55.172Z,0.30
2018-04-22T06:55:22.751Z,0.20
2018-04-22T06:57:50.310Z,0.30
2018-04-22T07:00:17.898Z,0.30
2018-04-22T07:02:45.480Z,0.37
2018-04-22T07:05:13.051Z,0.30
2018-04-22T07:07:40.613Z,0.20
2018-04-22T07:10:08.176Z,0.30
2018-04-22T07:12:35.762Z,0.30
2018-04-22T07:15:04.113Z,0.20
2018-04-22T07:17:31.668Z,0.20
2018-04-22T07:19:59.223Z,0.20
2018-04-22T07:22:26.777Z,0.30
2018-04-22T07:24:54.338Z,0.30
2018-04-22T07:27:21.923Z,0.30
2018-04-22T07:29:49.505Z,0.30
2018-04-22T07:32:18.760Z,0.20
2018-04-22T07:34:46.312Z,0.27
2018-04-22T07:37:13.878Z,0.30
2018-04-22T07:39:41.453Z,0.33
2018-04-22T07:42:09.004Z,0.30
2018-04-22T07:44:36.564Z,0.30
2018-04-22T07:47:04.120Z,0.30
2018-04-22T07:49:31.746Z,0.20
2018-04-22T07:51:59.331Z,0.30
2018-04-22T07:54:26.888Z,0.40
2018-04-22T07:56:54.448Z,0.20
2018-04-22T07:59:22.004Z,0.30
2018-04-22T08:01:49.555Z,0.20
2018-04-22T08:04:17.188Z,0.30
2018-04-22T08:06:44.833Z,0.50
2018-04-22T08:09:12.394Z,0.20
2018-04-22T08:11:39.949Z,0.37
2018-04-22T08:14:07.510Z,0.30
2018-04-22T08:16:35.089Z,0.30
2018-04-22T08:19:02.640Z,0.20
2018-04-22T08:21:30.203Z,0.47
2018-04-22T08:23:57.757Z,0.40
2018-04-22T08:26:25.316Z,0.40
2018-04-22T08:28:52.896Z,0.30
2018-04-22T08:31:20.449Z,0.20
2018-04-22T08:33:48.027Z,0.20
2018-04-22T08:36:15.587Z,0.30
2018-04-22T08:38:43.149Z,0.40
2018-04-22T08:41:10.728Z,0.40
2018-04-22T08:43:38.284Z,0.60
2018-04-22T08:46:05.845Z,0.40
2018-04-22T08:48:34.192Z,0.30
2018-04-22T08:51:01.741Z,0.30
2018-04-22T08:53:29.294Z,0.40
2018-04-22T08:55:56.883Z,0.20
2018-04-22T08:58:25.202Z,0.20
2018-04-22T09:00:52.756Z,0.30
2018-04-22T09:03:20.336Z,0.27
2018-04-22T09:05:47.889Z,0.30
2018-04-22T09:08:15.452Z,0.40
2018-04-22T09:10:43.008Z,0.30
2018-04-22T09:13:10.557Z,0.40
2018-04-22T09:15:38.124Z,0.33
2018-04-22T09:18:05.676Z,0.40
2018-04-22T09:20:33.240Z,0.40
2018-04-22T09:23:00.824Z,0.30
2018-04-22T09:25:28.382Z,0.27
2018-04-22T09:27:55.993Z,0.37
2018-04-22T09:30:24.288Z,0.30
2018-04-22T09:32:51.875Z,0.30
2018-04-22T09:35:19.452Z,0.40
2018-04-22T09:37:47.008Z,0.30
2018-04-22T09:40:15.329Z,0.30
2018-04-22T09:42:42.882Z,0.40
2018-04-22T09:45:10.428Z,0.40
2018-04-22T09:47:38.004Z,0.20
2018-04-22T09:50:05.556Z,0.20
2018-04-22T09:52:33.113Z,0.40
2018-04-22T09:55:00.671Z,0.30
2018-04-22T09:57:28.220Z,0.30
2018-04-22T09:59:55.808Z,0.40
2018-04-22T10:02:28.948Z,0.40
2018-04-22T10:04:57.336Z,0.20
2018-04-22T10:07:25.640Z,1.10
2018-04-22T10:09:53.208Z,0.83
2018-04-22T10:12:20.770Z,0.40
2018-04-22T10:14:48.320Z,0.40
2018-04-22T10:17:15.901Z,0.50
2018-04-22T10:19:43.452Z,0.40
2018-04-22T10:22:11.008Z,0.50
2018-04-22T10:24:38.568Z,0.33
2018-04-22T10:27:06.131Z,0.40
2018-04-22T10:29:33.712Z,0.30
2018-04-22T10:32:02.029Z,0.30
2018-04-22T10:34:29.580Z,0.30
2018-04-22T10:36:57.177Z,0.57
2018-04-22T10:39:24.732Z,0.40
2018-04-22T10:41:52.336Z,0.50
2018-04-22T10:44:19.918Z,0.50
2018-04-22T10:46:47.535Z,0.70
2018-04-22T10:49:15.098Z,0.60
2018-04-22T10:51:42.661Z,0.30
2018-04-22T10:54:11.008Z,0.40
2018-04-22T10:56:38.557Z,0.30
2018-04-22T10:59:06.129Z,0.20
2018-04-22T11:01:33.685Z,0.40
2018-04-22T11:04:01.256Z,0.30
2018-04-22T11:06:29.604Z,0.40
2018-04-22T11:08:57.183Z,0.40
2018-04-22T11:11:24.740Z,0.40
2018-04-22T11:13:52.297Z,0.30
2018-04-22T11:16:20.732Z,0.37
2018-04-22T11:18:48.308Z,0.23
2018-04-22T11:21:15.933Z,0.30
2018-04-22T11:23:43.576Z,0.20
2018-04-22T11:26:11.908Z,0.30
2018-04-22T11:28:39.460Z,0.40
2018-04-22T11:31:07.033Z,0.33
2018-04-22T11:33:34.586Z,0.30
2018-04-22T11:36:02.141Z,0.20
2018-04-22T11:38:29.702Z,0.30
2018-04-22T11:40:57.259Z,0.40
2018-04-22T11:43:24.812Z,0.30
2018-04-22T11:45:52.371Z,0.20
2018-04-22T11:48:19.943Z,0.30
2018-04-22T11:50:47.504Z,0.30
2018-04-22T11:53:15.061Z,0.30
2018-04-22T11:55:42.612Z,0.40
2018-04-22T11:58:10.161Z,0.30
2018-04-22T12:00:37.740Z,0.50
2018-04-22T12:03:05.292Z,0.20
2018-04-22T12:05:32.848Z,0.90
2018-04-22T12:08:00.444Z,0.37
2018-04-22T12:10:28.002Z,0.40
2018-04-22T12:12:55.583Z,0.20
2018-04-22T12:15:23.134Z,0.20
2018-04-22T12:17:50.687Z,0.20
2018-04-22T12:20:19.048Z,0.30
2018-04-22T12:22:47.388Z,0.40
2018-04-22T12:25:14.967Z,0.30
2018-04-22T12:27:42.533Z,0.20
2018-04-22T12:30:10.154Z,0.60
2018-04-22T12:32:37.712Z,0.40
2018-04-22T12:35:06.032Z,0.30
2018-04-22T12:37:33.610Z,0.30
2018-04-22T12:40:01.171Z,0.20
2018-04-22T12:42:28.771Z,0.30
2018-04-22T12:44:56.328Z,0.23
2018-04-22T12:47:23.888Z,0.20
2018-04-22T12:49:51.461Z,0.20
2018-04-22T12:52:19.012Z,0.30
2018-04-22T12:54:46.564Z,0.20
2018-04-22T12:57:14.116Z,0.13
2018-04-22T12:59:41.665Z,0.27
2018-04-22T13:02:09.251Z,0.20
2018-04-22T13:04:36.806Z,0.30
2018-04-22T13:07:04.360Z,0.30
2018-04-22T13:09:31.930Z,0.30
2018-04-22T13:11:59.480Z,0.33
2018-04-22T13:14:27.094Z,0.30
2018-04-22T13:16:54.661Z,0.30
2018-04-22T13:19:22.221Z,0.20
2018-04-22T13:21:49.784Z,0.20
2018-04-22T13:24:17.332Z,0.30
2018-04-22T13:26:44.904Z,0.30
2018-04-22T13:29:12.462Z,0.30
2018-04-22T13:31:40.061Z,0.30
2018-04-22T13:34:07.602Z,0.20
2018-04-22T13:36:35.164Z,0.30
2018-04-22T13:39:02.918Z,0.30
2018-04-22T13:41:30.513Z,0.30
2018-04-22T13:43:58.064Z,0.40
2018-04-22T13:46:26.380Z,0.37
2018-04-22T13:48:53.937Z,0.43
2018-04-22T13:51:21.520Z,0.53
2018-04-22T13:53:49.069Z,0.90
2018-04-22T13:56:16.627Z,0.90
2018-04-22T13:58:44.367Z,0.70
2018-04-22T14:01:11.926Z,0.70
2018-04-22T14:03:39.513Z,0.50
2018-04-22T14:06:07.071Z,0.57
2018-04-22T14:08:34.628Z,0.50
2018-04-22T14:11:02.177Z,0.50
2018-04-22T14:13:29.727Z,0.50
2018-04-22T14:15:57.348Z,0.80
2018-04-22T14:18:24.896Z,0.30
2018-04-22T14:20:52.457Z,0.70
2018-04-22T14:23:20.038Z,1.00
2018-04-22T14:25:47.625Z,0.97
2018-04-22T14:28:15.204Z,0.80
2018-04-22T14:30:42.756Z,0.70
2018-04-22T14:33:10.307Z,0.70
2018-04-22T14:35:37.867Z,0.50
2018-04-22T14:38:05.463Z,0.50
2018-04-22T14:40:33.805Z,0.40
2018-04-22T14:43:01.365Z,0.50
2018-04-22T14:45:40.868Z,0.50
2018-04-22T14:48:08.420Z,0.50
2018-04-22T14:50:36.176Z,0.60
2018-04-22T14:53:03.728Z,0.40
2018-04-22T14:55:31.281Z,0.50
2018-04-22T14:57:58.866Z,0.40
2018-04-22T15:00:26.424Z,0.43
2018-04-22T15:02:53.980Z,0.40
2018-04-22T15:05:21.553Z,0.40
2018-04-22T15:07:49.103Z,0.53
2018-04-22T15:10:16.660Z,0.40
2018-04-22T15:12:44.247Z,0.80
2018-04-22T15:15:11.808Z,0.60
2018-04-22T15:17:39.380Z,0.50
2018-04-22T15:20:06.940Z,0.60
2018-04-22T15:22:35.299Z,0.70
2018-04-22T15:25:02.871Z,0.40
2018-04-22T15:27:31.270Z,0.70
2018-04-22T15:29:58.827Z,0.43
2018-04-22T15:32:26.404Z,0.60
2018-04-22T15:34:53.964Z,0.63
2018-04-22T15:37:21.521Z,0.40
2018-04-22T15:39:49.076Z,0.50
2018-04-22T15:42:16.665Z,0.90
2018-04-22T15:44:44.263Z,0.70
2018-04-22T15:47:12.584Z,0.90
2018-04-22T15:49:40.144Z,0.70
2018-04-22T15:52:07.703Z,0.63
2018-04-22T15:54:35.260Z,0.60
2018-04-22T15:57:02.840Z,0.50
2018-04-22T15:59:30.395Z,0.40
2018-04-22T16:01:57.954Z,0.37
2018-04-22T16:04:25.533Z,0.30
2018-04-22T16:06:53.094Z,0.40
2018-04-22T16:09:20.688Z,0.47
2018-04-22T16:11:48.240Z,0.63
2018-04-22T16:14:15.841Z,0.70
2018-04-22T16:16:43.378Z,0.60
2018-04-22T16:19:10.935Z,0.43
2018-04-22T16:21:38.522Z,0.60
2018-04-22T16:24:06.073Z,0.50
2018-04-22T16:26:33.628Z,0.50
2018-04-22T16:29:01.200Z,0.40
2018-04-22T16:31:28.749Z,0.67
2018-04-22T16:33:56.336Z,0.40
2018-04-22T16:36:23.884Z,0.40
2018-04-22T16:38:51.441Z,0.40
2018-04-22T16:41:18.987Z,0.50
2018-04-22T16:43:48.047Z,0.50
2018-04-22T16:46:15.620Z,0.50
2018-04-22T16:48:43.172Z,0.60
2018-04-22T16:51:10.748Z,0.50
2018-04-22T16:53:38.310Z,0.40
2018-04-22T16:56:05.864Z,0.40
2018-04-22T16:58:33.444Z,0.77
2018-04-22T17:01:00.992Z,0.43
2018-04-22T17:03:28.560Z,0.40
2018-04-22T17:05:56.203Z,0.40
2018-04-22T17:08:23.760Z,0.53
2018-04-22T17:10:51.344Z,0.63
2018-04-22T17:13:19.672Z,0.50
2018-04-22T17:15:47.216Z,0.40
2018-04-22T17:18:14.769Z,0.70
2018-04-22T17:20:42.332Z,0.60
2018-04-22T17:23:09.905Z,0.67
2018-04-22T17:25:37.547Z,0.50
2018-04-22T17:28:05.095Z,0.60
2018-04-22T17:30:32.645Z,0.90
2018-04-22T17:33:00.202Z,0.70
2018-04-22T17:35:27.789Z,0.60
2018-04-22T17:37:55.340Z,0.63
2018-04-22T17:40:22.897Z,0.60
2018-04-22T17:42:50.444Z,1.17
2018-04-22T17:45:18.021Z,1.20
2018-04-22T17:47:45.599Z,1.50
2018-04-22T17:50:13.152Z,1.80
2018-04-22T17:52:40.700Z,1.83
2018-04-22T17:55:08.255Z,1.17
2018-04-22T17:57:35.811Z,1.27
2018-04-22T18:00:03.377Z,1.20
2018-04-22T18:02:30.920Z,0.97
2018-04-22T18:04:58.478Z,0.93
2018-04-22T18:07:26.028Z,1.00
2018-04-22T18:09:53.577Z,1.10
2018-04-22T18:12:21.154Z,0.90
2018-04-22T18:14:48.701Z,0.70
2018-04-22T18:17:16.256Z,0.50
2018-04-22T18:19:43.807Z,0.60
2018-04-22T18:22:11.360Z,0.50
2018-04-22T18:24:38.960Z,0.40
2018-04-22T18:27:06.507Z,0.50
2018-04-22T18:29:34.056Z,0.80
2018-04-22T18:32:01.624Z,0.50
2018-04-22T18:34:29.184Z,0.70
2018-04-22T18:36:57.472Z,0.60
2018-04-22T18:39:25.017Z,0.87
2018-04-22T18:41:53.348Z,0.50
2018-04-22T18:44:21.676Z,0.70
2018-04-22T18:46:49.232Z,0.63
2018-04-22T18:49:16.812Z,0.60
2018-04-22T18:51:44.357Z,0.70
2018-04-22T18:54:12.684Z,0.63
2018-04-22T18:56:40.245Z,0.80
2018-04-22T18:59:07.799Z,0.90
2018-04-22T19:01:35.372Z,0.83
2018-04-22T19:04:02.920Z,0.90
2018-04-22T19:06:30.474Z,0.90
2018-04-22T19:08:58.028Z,0.97
2018-04-22T19:11:26.344Z,0.87
2018-04-22T19:13:53.916Z,0.83
2018-04-22T19:16:21.480Z,0.93
2018-04-22T19:18:49.036Z,0.80
2018-04-22T19:21:16.604Z,0.90
2018-04-22T19:23:44.160Z,1.23
2018-04-22T19:26:11.731Z,0.90
2018-04-22T19:28:39.277Z,1.00
2018-04-22T19:31:06.833Z,1.40
2018-04-22T19:33:34.393Z,1.17
2018-04-22T19:36:01.950Z,1.40
2018-04-22T19:38:29.528Z,1.30
2018-04-22T19:40:57.101Z,2.53
2018-04-22T19:43:24.661Z,3.00
2018-04-22T19:45:52.216Z,1.93
2018-04-22T19:48:19.791Z,1.67
2018-04-22T19:50:47.413Z,1.10
2018-04-22T19:53:15.040Z,0.90
2018-04-22T19:55:42.589Z,1.00
2018-04-22T19:58:10.141Z,1.00
2018-04-22T20:00:37.704Z,0.90
2018-04-22T20:03:05.277Z,0.70
2018-04-22T20:05:32.832Z,0.60
2018-04-22T20:08:00.384Z,0.73
2018-04-22T20:10:27.932Z,0.70
2018-04-22T20:12:55.495Z,0.60
2018-04-22T20:15:23.076Z,0.70
2018-04-22T20:17:50.636Z,0.70
2018-04-22T20:20:18.192Z,0.70
2018-04-22T20:22:45.756Z,0.60
2018-04-22T20:25:13.313Z,0.67
2018-04-22T20:27:41.684Z,0.67
2018-04-22T20:30:09.264Z,0.50
2018-04-22T20:32:36.842Z,0.50
2018-04-22T20:35:05.156Z,0.40
2018-04-22T20:37:32.707Z,0.47
2018-04-22T20:40:00.281Z,0.50
2018-04-22T20:42:27.902Z,0.40
2018-04-22T20:44:56.188Z,0.53
2018-04-22T20:47:23.740Z,0.50
2018-04-22T20:49:51.284Z,0.57
2018-04-22T20:52:19.664Z,0.40
2018-04-22T20:54:47.213Z,0.40
2018-04-22T20:57:14.760Z,0.50
2018-04-22T20:59:44.106Z,0.50
2018-04-22T21:02:11.653Z,0.60
2018-04-22T21:04:39.232Z,0.50
2018-04-22T21:07:06.777Z,0.50
2018-04-22T21:09:34.340Z,0.67
2018-04-22T21:12:01.900Z,0.40
2018-04-22T21:14:29.456Z,0.70
2018-04-22T21:16:57.032Z,0.40
2018-04-22T21:19:24.580Z,0.60
2018-04-22T21:21:52.129Z,0.50
2018-04-22T21:24:19.688Z,0.70
2018-04-22T21:26:48.089Z,0.50
2018-04-22T21:29:15.668Z,0.40
2018-04-22T21:31:43.223Z,0.50
2018-04-22T21:34:10.772Z,0.60
2018-04-22T21:36:38.345Z,0.60
2018-04-22T21:39:06.665Z,0.60
2018-04-22T21:41:34.212Z,0.50
2018-04-22T21:44:01.764Z,0.50
2018-04-22T21:46:29.316Z,0.50
2018-04-22T21:48:56.882Z,0.50
2018-04-22T21:51:24.445Z,0.70
2018-04-22T21:53:51.995Z,0.63
2018-04-22T21:56:19.544Z,0.60
2018-04-22T21:58:47.856Z,0.50
2018-04-22T22:01:15.400Z,0.53
2018-04-22T22:03:42.994Z,0.70
2018-04-22T22:06:10.555Z,0.60
2018-04-22T22:08:38.120Z,0.60
2018-04-22T22:11:05.676Z,0.70
2018-04-22T22:13:33.224Z,0.63
2018-04-22T22:16:00.791Z,0.60
2018-04-22T22:18:28.336Z,0.60
2018-04-22T22:20:55.879Z,0.50
2018-04-22T22:23:23.432Z,0.40
2018-04-22T22:25:50.976Z,0.50
2018-04-22T22:28:18.552Z,0.80
2018-04-22T22:30:46.102Z,0.70
2018-04-22T22:33:13.655Z,0.60
2018-04-22T22:35:41.210Z,0.57
2018-04-22T22:38:08.784Z,0.90
2018-04-22T22:40:36.365Z,0.90
2018-04-22T22:43:04.680Z,0.50
2018-04-22T22:45:32.225Z,0.70
2018-04-22T22:47:59.780Z,0.63
2018-04-22T22:50:28.100Z,0.53
2018-04-22T22:52:55.674Z,0.67
2018-04-22T22:55:23.229Z,0.70
2018-04-22T22:57:50.780Z,0.53
2018-04-22T23:00:18.377Z,0.53
2018-04-22T23:02:45.984Z,0.80
2018-04-22T23:05:13.524Z,0.67
2018-04-22T23:07:41.836Z,0.60
2018-04-22T23:10:09.392Z,0.50
2018-04-22T23:12:36.962Z,0.53
2018-04-22T23:15:04.508Z,0.80
2018-04-22T23:17:32.081Z,0.50
2018-04-22T23:19:59.644Z,0.50
2018-04-22T23:22:27.192Z,0.50
2018-04-22T23:24:54.748Z,0.40
2018-04-22T23:27:22.307Z,0.50
2018-04-22T23:29:49.884Z,0.30
2018-04-22T23:32:17.440Z,0.30
2018-04-22T23:34:44.984Z,0.30
2018-04-22T23:37:12.532Z,0.30
2018-04-22T23:39:40.089Z,0.40
2018-04-22T23:42:07.656Z,0.37
2018-04-22T23:44:35.202Z,0.30
2018-04-22T23:47:02.756Z,0.30
2018-04-22T23:49:30.316Z,0.40
2018-04-22T23:51:57.871Z,0.40
2018-04-22T23:54:25.519Z,0.40
2018-04-22T23:56:53.043Z,0.37
2018-04-22T23:59:20.596Z,0.43
